sensor_id;sensor_type;location;lat;lon;timestamp;P1;durP1;ratioP1;P2;durP2;ratioP2
8889;SDS011;4481;43.406;24.454;2022-08-02T00:02:18;1.50;;;1.40;;
8889;SDS011;4481;43.406;24.454;2022-08-02T00:04:45;2.00;;;1.53;;
8889;SDS011;4481;43.406;24.454;2022-08-02T00:07:12;1.77;;;1.40;;
8889;SDS011;4481;43.406;24.454;2022-08-02T00:09:39;2.40;;;1.30;;
8889;SDS011;4481;43.406;24.454;2022-08-02T00:12:06;1.40;;;1.30;;
8889;SDS011;4481;43.406;24.454;2022-08-02T00:14:33;1.47;;;1.37;;
8889;SDS011;4481;43.406;24.454;2022-08-02T00:16:59;1.60;;;1.47;;
8889;SDS011;4481;43.406;24.454;2022-08-02T00:19:26;1.60;;;1.50;;
8889;SDS011;4481;43.406;24.454;2022-08-02T00:21:53;2.40;;;1.70;;
8889;SDS011;4481;43.406;24.454;2022-08-02T00:24:19;1.87;;;1.53;;
8889;SDS011;4481;43.406;24.454;2022-08-02T00:26:45;2.13;;;1.30;;
8889;SDS011;4481;43.406;24.454;2022-08-02T00:29:11;3.13;;;1.80;;
8889;SDS011;4481;43.406;24.454;2022-08-02T00:31:38;2.20;;;1.40;;
8889;SDS011;4481;43.406;24.454;2022-08-02T00:34:04;1.50;;;1.40;;
8889;SDS011;4481;43.406;24.454;2022-08-02T00:36:30;1.37;;;1.23;;
8889;SDS011;4481;43.406;24.454;2022-08-02T00:38:57;1.77;;;1.60;;
8889;SDS011;4481;43.406;24.454;2022-08-02T00:41:23;1.80;;;1.57;;
8889;SDS011;4481;43.406;24.454;2022-08-02T00:43:50;2.60;;;1.77;;
8889;SDS011;4481;43.406;24.454;2022-08-02T00:46:17;1.53;;;1.40;;
8889;SDS011;4481;43.406;24.454;2022-08-02T00:48:44;1.50;;;1.40;;
8889;SDS011;4481;43.406;24.454;2022-08-02T00:51:11;1.80;;;1.33;;
8889;SDS011;4481;43.406;24.454;2022-08-02T00:53:38;5.17;;;1.57;;
8889;SDS011;4481;43.406;24.454;2022-08-02T00:56:05;2.10;;;1.63;;
8889;SDS011;4481;43.406;24.454;2022-08-02T00:58:31;2.07;;;1.77;;
8889;SDS011;4481;43.406;24.454;2022-08-02T01:00:57;1.80;;;1.67;;
8889;SDS011;4481;43.406;24.454;2022-08-02T01:03:26;4.17;;;1.70;;
8889;SDS011;4481;43.406;24.454;2022-08-02T01:05:52;1.70;;;1.60;;
8889;SDS011;4481;43.406;24.454;2022-08-02T01:08:18;2.53;;;1.63;;
8889;SDS011;4481;43.406;24.454;2022-08-02T01:10:44;1.40;;;1.30;;
8889;SDS011;4481;43.406;24.454;2022-08-02T01:13:11;1.70;;;1.30;;
8889;SDS011;4481;43.406;24.454;2022-08-02T01:15:39;1.50;;;1.40;;
8889;SDS011;4481;43.406;24.454;2022-08-02T01:18:14;1.60;;;1.50;;
8889;SDS011;4481;43.406;24.454;2022-08-02T01:23:44;1.30;;;1.20;;
8889;SDS011;4481;43.406;24.454;2022-08-02T01:26:33;1.80;;;1.47;;
8889;SDS011;4481;43.406;24.454;2022-08-02T01:29:07;1.77;;;1.40;;
8889;SDS011;4481;43.406;24.454;2022-08-02T01:31:39;3.10;;;2.57;;
8889;SDS011;4481;43.406;24.454;2022-08-02T01:34:11;3.50;;;2.57;;
8889;SDS011;4481;43.406;24.454;2022-08-02T01:36:43;2.83;;;1.80;;
8889;SDS011;4481;43.406;24.454;2022-08-02T01:39:14;2.90;;;1.80;;
8889;SDS011;4481;43.406;24.454;2022-08-02T01:41:45;2.10;;;1.90;;
8889;SDS011;4481;43.406;24.454;2022-08-02T01:44:14;2.43;;;2.00;;
8889;SDS011;4481;43.406;24.454;2022-08-02T01:46:43;2.10;;;1.90;;
8889;SDS011;4481;43.406;24.454;2022-08-02T01:49:13;2.20;;;1.63;;
8889;SDS011;4481;43.406;24.454;2022-08-02T01:51:43;1.67;;;1.57;;
8889;SDS011;4481;43.406;24.454;2022-08-02T01:54:30;1.70;;;1.60;;
8889;SDS011;4481;43.406;24.454;2022-08-02T01:56:57;2.20;;;2.00;;
8889;SDS011;4481;43.406;24.454;2022-08-02T01:59:28;1.60;;;1.50;;
8889;SDS011;4481;43.406;24.454;2022-08-02T02:01:56;1.90;;;1.70;;
8889;SDS011;4481;43.406;24.454;2022-08-02T02:04:24;2.17;;;2.07;;
8889;SDS011;4481;43.406;24.454;2022-08-02T02:06:52;1.90;;;1.60;;
8889;SDS011;4481;43.406;24.454;2022-08-02T02:09:22;3.93;;;2.20;;
8889;SDS011;4481;43.406;24.454;2022-08-02T02:11:52;1.60;;;1.40;;
8889;SDS011;4481;43.406;24.454;2022-08-02T02:14:21;2.87;;;1.97;;
8889;SDS011;4481;43.406;24.454;2022-08-02T02:16:49;4.63;;;1.50;;
8889;SDS011;4481;43.406;24.454;2022-08-02T02:19:17;2.27;;;1.73;;
8889;SDS011;4481;43.406;24.454;2022-08-02T02:21:45;2.13;;;1.53;;
8889;SDS011;4481;43.406;24.454;2022-08-02T02:24:11;4.27;;;1.80;;
8889;SDS011;4481;43.406;24.454;2022-08-02T02:26:37;4.43;;;1.70;;
8889;SDS011;4481;43.406;24.454;2022-08-02T02:29:06;2.00;;;1.50;;
8889;SDS011;4481;43.406;24.454;2022-08-02T02:31:36;2.00;;;1.90;;
8889;SDS011;4481;43.406;24.454;2022-08-02T02:34:06;2.30;;;2.10;;
8889;SDS011;4481;43.406;24.454;2022-08-02T02:36:36;2.20;;;1.60;;
8889;SDS011;4481;43.406;24.454;2022-08-02T02:39:04;1.73;;;1.53;;
8889;SDS011;4481;43.406;24.454;2022-08-02T02:41:32;3.10;;;1.83;;
8889;SDS011;4481;43.406;24.454;2022-08-02T02:44:00;2.53;;;1.50;;
8889;SDS011;4481;43.406;24.454;2022-08-02T02:46:27;4.40;;;1.90;;
8889;SDS011;4481;43.406;24.454;2022-08-02T02:48:55;1.70;;;1.50;;
8889;SDS011;4481;43.406;24.454;2022-08-02T02:51:23;2.70;;;2.00;;
8889;SDS011;4481;43.406;24.454;2022-08-02T02:53:50;2.07;;;1.77;;
8889;SDS011;4481;43.406;24.454;2022-08-02T02:56:18;3.40;;;1.57;;
8889;SDS011;4481;43.406;24.454;2022-08-02T02:58:45;6.47;;;1.87;;
8889;SDS011;4481;43.406;24.454;2022-08-02T03:01:12;4.43;;;2.17;;
8889;SDS011;4481;43.406;24.454;2022-08-02T03:03:52;1.70;;;1.60;;
8889;SDS011;4481;43.406;24.454;2022-08-02T03:06:19;1.67;;;1.53;;
8889;SDS011;4481;43.406;24.454;2022-08-02T03:08:46;5.60;;;1.90;;
8889;SDS011;4481;43.406;24.454;2022-08-02T03:11:12;3.67;;;1.67;;
8889;SDS011;4481;43.406;24.454;2022-08-02T03:13:40;1.60;;;1.50;;
8889;SDS011;4481;43.406;24.454;2022-08-02T03:16:06;2.73;;;2.43;;
8889;SDS011;4481;43.406;24.454;2022-08-02T03:18:33;2.57;;;1.60;;
8889;SDS011;4481;43.406;24.454;2022-08-02T03:21:00;5.70;;;1.80;;
8889;SDS011;4481;43.406;24.454;2022-08-02T03:23:28;2.87;;;2.10;;
8889;SDS011;4481;43.406;24.454;2022-08-02T03:25:56;2.47;;;2.20;;
8889;SDS011;4481;43.406;24.454;2022-08-02T03:28:22;2.50;;;2.20;;
8889;SDS011;4481;43.406;24.454;2022-08-02T03:30:49;2.40;;;2.20;;
8889;SDS011;4481;43.406;24.454;2022-08-02T03:33:15;2.97;;;2.70;;
8889;SDS011;4481;43.406;24.454;2022-08-02T03:35:43;3.23;;;2.80;;
8889;SDS011;4481;43.406;24.454;2022-08-02T03:38:11;6.40;;;3.10;;
8889;SDS011;4481;43.406;24.454;2022-08-02T03:40:41;5.73;;;2.63;;
8889;SDS011;4481;43.406;24.454;2022-08-02T03:43:09;4.37;;;2.47;;
8889;SDS011;4481;43.406;24.454;2022-08-02T03:45:36;7.50;;;2.17;;
8889;SDS011;4481;43.406;24.454;2022-08-02T03:48:04;6.63;;;2.17;;
8889;SDS011;4481;43.406;24.454;2022-08-02T03:50:31;2.80;;;2.10;;
8889;SDS011;4481;43.406;24.454;2022-08-02T03:52:59;2.40;;;2.20;;
8889;SDS011;4481;43.406;24.454;2022-08-02T03:55:26;2.97;;;1.90;;
8889;SDS011;4481;43.406;24.454;2022-08-02T03:57:52;2.63;;;1.80;;
8889;SDS011;4481;43.406;24.454;2022-08-02T04:00:20;2.00;;;1.90;;
8889;SDS011;4481;43.406;24.454;2022-08-02T04:02:47;2.87;;;1.90;;
8889;SDS011;4481;43.406;24.454;2022-08-02T04:05:14;1.67;;;1.57;;
8889;SDS011;4481;43.406;24.454;2022-08-02T04:07:41;2.53;;;1.90;;
8889;SDS011;4481;43.406;24.454;2022-08-02T04:10:08;10.37;;;1.63;;
8889;SDS011;4481;43.406;24.454;2022-08-02T04:12:35;1.80;;;1.60;;
8889;SDS011;4481;43.406;24.454;2022-08-02T04:15:02;16.77;;;2.77;;
8889;SDS011;4481;43.406;24.454;2022-08-02T04:17:31;36.30;;;3.40;;
8889;SDS011;4481;43.406;24.454;2022-08-02T04:20:00;19.47;;;3.30;;
8889;SDS011;4481;43.406;24.454;2022-08-02T04:22:33;33.17;;;3.23;;
8889;SDS011;4481;43.406;24.454;2022-08-02T04:25:04;18.27;;;2.43;;
8889;SDS011;4481;43.406;24.454;2022-08-02T04:27:32;45.23;;;4.97;;
8889;SDS011;4481;43.406;24.454;2022-08-02T04:30:01;80.87;;;5.97;;
8889;SDS011;4481;43.406;24.454;2022-08-02T04:32:28;58.60;;;4.47;;
8889;SDS011;4481;43.406;24.454;2022-08-02T04:34:56;28.90;;;4.77;;
8889;SDS011;4481;43.406;24.454;2022-08-02T04:37:22;21.57;;;3.60;;
8889;SDS011;4481;43.406;24.454;2022-08-02T04:39:50;68.40;;;6.17;;
8889;SDS011;4481;43.406;24.454;2022-08-02T04:42:19;308.63;;;16.47;;
8889;SDS011;4481;43.406;24.454;2022-08-02T04:44:46;307.43;;;18.53;;
8889;SDS011;4481;43.406;24.454;2022-08-02T04:47:13;36.90;;;3.47;;
8889;SDS011;4481;43.406;24.454;2022-08-02T04:49:40;84.70;;;5.87;;
8889;SDS011;4481;43.406;24.454;2022-08-02T04:52:07;90.77;;;8.63;;
8889;SDS011;4481;43.406;24.454;2022-08-02T04:54:33;106.40;;;8.73;;
8889;SDS011;4481;43.406;24.454;2022-08-02T04:56:59;63.37;;;4.67;;
8889;SDS011;4481;43.406;24.454;2022-08-02T04:59:25;132.27;;;9.97;;
8889;SDS011;4481;43.406;24.454;2022-08-02T05:01:51;36.83;;;4.40;;
8889;SDS011;4481;43.406;24.454;2022-08-02T05:04:18;34.00;;;3.67;;
8889;SDS011;4481;43.406;24.454;2022-08-02T05:06:44;30.20;;;4.43;;
8889;SDS011;4481;43.406;24.454;2022-08-02T05:09:11;35.23;;;4.17;;
8889;SDS011;4481;43.406;24.454;2022-08-02T05:11:37;14.13;;;3.03;;
8889;SDS011;4481;43.406;24.454;2022-08-02T05:14:04;17.63;;;3.33;;
8889;SDS011;4481;43.406;24.454;2022-08-02T05:16:30;10.17;;;2.87;;
8889;SDS011;4481;43.406;24.454;2022-08-02T05:18:56;1.87;;;1.70;;
8889;SDS011;4481;43.406;24.454;2022-08-02T05:21:23;8.80;;;2.30;;
8889;SDS011;4481;43.406;24.454;2022-08-02T05:23:49;9.33;;;2.23;;
8889;SDS011;4481;43.406;24.454;2022-08-02T05:26:16;3.67;;;2.50;;
8889;SDS011;4481;43.406;24.454;2022-08-02T05:28:42;150.33;;;12.23;;
8889;SDS011;4481;43.406;24.454;2022-08-02T05:31:08;14.23;;;2.03;;
8889;SDS011;4481;43.406;24.454;2022-08-02T05:33:34;15.43;;;2.37;;
8889;SDS011;4481;43.406;24.454;2022-08-02T05:36:00;49.93;;;3.40;;
8889;SDS011;4481;43.406;24.454;2022-08-02T05:38:27;66.10;;;5.20;;
8889;SDS011;4481;43.406;24.454;2022-08-02T05:40:55;28.63;;;4.43;;
8889;SDS011;4481;43.406;24.454;2022-08-02T05:43:22;21.40;;;2.77;;
8889;SDS011;4481;43.406;24.454;2022-08-02T05:45:48;9.20;;;2.40;;
8889;SDS011;4481;43.406;24.454;2022-08-02T05:48:15;8.00;;;2.40;;
8889;SDS011;4481;43.406;24.454;2022-08-02T05:50:43;3.43;;;2.10;;
8889;SDS011;4481;43.406;24.454;2022-08-02T05:53:13;4.47;;;1.80;;
8889;SDS011;4481;43.406;24.454;2022-08-02T05:55:50;7.33;;;2.30;;
8889;SDS011;4481;43.406;24.454;2022-08-02T05:58:26;3.50;;;2.40;;
8889;SDS011;4481;43.406;24.454;2022-08-02T06:01:01;2.63;;;2.00;;
8889;SDS011;4481;43.406;24.454;2022-08-02T06:03:30;5.33;;;1.80;;
8889;SDS011;4481;43.406;24.454;2022-08-02T06:06:03;2.30;;;2.10;;
8889;SDS011;4481;43.406;24.454;2022-08-02T06:08:36;18.13;;;2.20;;
8889;SDS011;4481;43.406;24.454;2022-08-02T06:11:04;18.57;;;2.67;;
8889;SDS011;4481;43.406;24.454;2022-08-02T06:13:32;17.13;;;2.40;;
8889;SDS011;4481;43.406;24.454;2022-08-02T06:15:59;22.07;;;3.60;;
8889;SDS011;4481;43.406;24.454;2022-08-02T06:18:26;25.67;;;3.53;;
8889;SDS011;4481;43.406;24.454;2022-08-02T06:20:54;72.87;;;7.80;;
8889;SDS011;4481;43.406;24.454;2022-08-02T06:23:22;85.20;;;5.73;;
8889;SDS011;4481;43.406;24.454;2022-08-02T06:25:51;52.63;;;5.13;;
8889;SDS011;4481;43.406;24.454;2022-08-02T06:28:18;24.00;;;3.20;;
8889;SDS011;4481;43.406;24.454;2022-08-02T06:30:45;4.57;;;2.00;;
8889;SDS011;4481;43.406;24.454;2022-08-02T06:33:12;17.50;;;2.63;;
8889;SDS011;4481;43.406;24.454;2022-08-02T06:35:40;25.33;;;4.37;;
8889;SDS011;4481;43.406;24.454;2022-08-02T06:38:12;8.80;;;2.30;;
8889;SDS011;4481;43.406;24.454;2022-08-02T06:40:44;1.97;;;1.77;;
8889;SDS011;4481;43.406;24.454;2022-08-02T06:43:16;1.70;;;1.60;;
8889;SDS011;4481;43.406;24.454;2022-08-02T06:45:47;1.83;;;1.60;;
8889;SDS011;4481;43.406;24.454;2022-08-02T06:48:13;4.37;;;1.77;;
8889;SDS011;4481;43.406;24.454;2022-08-02T06:50:40;1.87;;;1.50;;
8889;SDS011;4481;43.406;24.454;2022-08-02T06:53:08;1.60;;;1.43;;
8889;SDS011;4481;43.406;24.454;2022-08-02T06:55:35;2.37;;;2.17;;
8889;SDS011;4481;43.406;24.454;2022-08-02T06:58:02;2.90;;;1.60;;
8889;SDS011;4481;43.406;24.454;2022-08-02T07:00:28;2.00;;;1.80;;
8889;SDS011;4481;43.406;24.454;2022-08-02T07:02:56;3.13;;;2.33;;
8889;SDS011;4481;43.406;24.454;2022-08-02T07:05:23;4.93;;;2.33;;
8889;SDS011;4481;43.406;24.454;2022-08-02T07:07:49;4.20;;;1.63;;
8889;SDS011;4481;43.406;24.454;2022-08-02T07:10:15;5.77;;;1.93;;
8889;SDS011;4481;43.406;24.454;2022-08-02T07:12:42;3.03;;;2.10;;
8889;SDS011;4481;43.406;24.454;2022-08-02T07:15:08;4.03;;;2.27;;
8889;SDS011;4481;43.406;24.454;2022-08-02T07:17:36;1.70;;;1.53;;
8889;SDS011;4481;43.406;24.454;2022-08-02T07:20:04;1.90;;;1.60;;
8889;SDS011;4481;43.406;24.454;2022-08-02T07:22:32;3.27;;;1.87;;
8889;SDS011;4481;43.406;24.454;2022-08-02T07:24:59;2.17;;;1.67;;
8889;SDS011;4481;43.406;24.454;2022-08-02T07:27:26;2.93;;;1.80;;
8889;SDS011;4481;43.406;24.454;2022-08-02T07:29:53;4.50;;;1.77;;
8889;SDS011;4481;43.406;24.454;2022-08-02T07:32:21;1.60;;;1.50;;
8889;SDS011;4481;43.406;24.454;2022-08-02T07:34:49;7.60;;;2.50;;
8889;SDS011;4481;43.406;24.454;2022-08-02T07:37:16;3.93;;;1.70;;
8889;SDS011;4481;43.406;24.454;2022-08-02T07:39:42;2.10;;;1.63;;
8889;SDS011;4481;43.406;24.454;2022-08-02T07:42:08;3.33;;;1.73;;
8889;SDS011;4481;43.406;24.454;2022-08-02T07:44:34;3.60;;;1.73;;
8889;SDS011;4481;43.406;24.454;2022-08-02T07:47:01;2.40;;;2.00;;
8889;SDS011;4481;43.406;24.454;2022-08-02T07:49:28;1.60;;;1.50;;
8889;SDS011;4481;43.406;24.454;2022-08-02T07:51:54;2.90;;;1.87;;
8889;SDS011;4481;43.406;24.454;2022-08-02T07:54:22;2.53;;;1.70;;
8889;SDS011;4481;43.406;24.454;2022-08-02T07:56:49;64.77;;;5.47;;
8889;SDS011;4481;43.406;24.454;2022-08-02T07:59:17;5.27;;;1.60;;
8889;SDS011;4481;43.406;24.454;2022-08-02T08:01:43;19.67;;;2.80;;
8889;SDS011;4481;43.406;24.454;2022-08-02T08:04:10;3.90;;;2.20;;
8889;SDS011;4481;43.406;24.454;2022-08-02T08:06:36;1.83;;;1.60;;
8889;SDS011;4481;43.406;24.454;2022-08-02T08:09:02;2.10;;;1.70;;
8889;SDS011;4481;43.406;24.454;2022-08-02T08:11:29;2.00;;;1.80;;
8889;SDS011;4481;43.406;24.454;2022-08-02T08:13:55;1.87;;;1.77;;
8889;SDS011;4481;43.406;24.454;2022-08-02T08:16:22;1.90;;;1.70;;
8889;SDS011;4481;43.406;24.454;2022-08-02T08:18:50;2.90;;;1.60;;
8889;SDS011;4481;43.406;24.454;2022-08-02T08:21:16;2.10;;;1.73;;
8889;SDS011;4481;43.406;24.454;2022-08-02T08:23:43;2.90;;;2.33;;
8889;SDS011;4481;43.406;24.454;2022-08-02T08:26:09;4.20;;;1.50;;
8889;SDS011;4481;43.406;24.454;2022-08-02T08:28:36;6.57;;;2.33;;
8889;SDS011;4481;43.406;24.454;2022-08-02T08:31:02;5.13;;;2.30;;
8889;SDS011;4481;43.406;24.454;2022-08-02T08:33:29;1.60;;;1.50;;
8889;SDS011;4481;43.406;24.454;2022-08-02T08:35:55;2.43;;;2.23;;
8889;SDS011;4481;43.406;24.454;2022-08-02T08:38:22;2.30;;;2.10;;
8889;SDS011;4481;43.406;24.454;2022-08-02T08:40:48;3.03;;;2.23;;
8889;SDS011;4481;43.406;24.454;2022-08-02T08:43:15;1.97;;;1.70;;
8889;SDS011;4481;43.406;24.454;2022-08-02T08:45:42;3.77;;;2.20;;
8889;SDS011;4481;43.406;24.454;2022-08-02T08:48:10;2.63;;;1.83;;
8889;SDS011;4481;43.406;24.454;2022-08-02T08:50:38;3.77;;;1.57;;
8889;SDS011;4481;43.406;24.454;2022-08-02T08:53:13;3.33;;;1.70;;
8889;SDS011;4481;43.406;24.454;2022-08-02T08:55:40;1.70;;;1.60;;
8889;SDS011;4481;43.406;24.454;2022-08-02T08:58:07;7.20;;;2.33;;
8889;SDS011;4481;43.406;24.454;2022-08-02T09:00:34;8.90;;;1.80;;
8889;SDS011;4481;43.406;24.454;2022-08-02T09:03:01;1.77;;;1.60;;
8889;SDS011;4481;43.406;24.454;2022-08-02T09:05:28;1.47;;;1.37;;
8889;SDS011;4481;43.406;24.454;2022-08-02T09:07:54;1.63;;;1.50;;
8889;SDS011;4481;43.406;24.454;2022-08-02T09:10:30;2.17;;;1.27;;
8889;SDS011;4481;43.406;24.454;2022-08-02T09:13:04;1.20;;;1.10;;
8889;SDS011;4481;43.406;24.454;2022-08-02T09:15:32;1.60;;;1.50;;
8889;SDS011;4481;43.406;24.454;2022-08-02T09:17:59;1.70;;;1.33;;
8889;SDS011;4481;43.406;24.454;2022-08-02T09:20:26;2.77;;;1.60;;
8889;SDS011;4481;43.406;24.454;2022-08-02T09:23:03;2.07;;;1.87;;
8889;SDS011;4481;43.406;24.454;2022-08-02T09:25:31;2.73;;;1.50;;
8889;SDS011;4481;43.406;24.454;2022-08-02T09:27:57;5.93;;;1.70;;
8889;SDS011;4481;43.406;24.454;2022-08-02T09:30:24;2.60;;;1.40;;
8889;SDS011;4481;43.406;24.454;2022-08-02T09:32:51;1.80;;;1.70;;
8889;SDS011;4481;43.406;24.454;2022-08-02T09:35:31;1.43;;;1.33;;
8889;SDS011;4481;43.406;24.454;2022-08-02T09:38:06;1.70;;;1.60;;
8889;SDS011;4481;43.406;24.454;2022-08-02T09:40:34;3.37;;;1.50;;
8889;SDS011;4481;43.406;24.454;2022-08-02T09:43:01;1.50;;;1.40;;
8889;SDS011;4481;43.406;24.454;2022-08-02T09:45:29;25.40;;;2.97;;
8889;SDS011;4481;43.406;24.454;2022-08-02T09:47:56;1.30;;;1.20;;
8889;SDS011;4481;43.406;24.454;2022-08-02T09:50:22;9.57;;;1.90;;
8889;SDS011;4481;43.406;24.454;2022-08-02T09:52:49;57.27;;;5.77;;
8889;SDS011;4481;43.406;24.454;2022-08-02T09:55:16;15.27;;;2.47;;
8889;SDS011;4481;43.406;24.454;2022-08-02T09:57:42;4.30;;;1.80;;
8889;SDS011;4481;43.406;24.454;2022-08-02T10:00:08;2.50;;;1.97;;
8889;SDS011;4481;43.406;24.454;2022-08-02T10:02:35;1.40;;;1.30;;
8889;SDS011;4481;43.406;24.454;2022-08-02T10:05:01;4.33;;;1.50;;
8889;SDS011;4481;43.406;24.454;2022-08-02T10:07:28;3.17;;;1.47;;
8889;SDS011;4481;43.406;24.454;2022-08-02T10:09:56;8.83;;;1.67;;
8889;SDS011;4481;43.406;24.454;2022-08-02T10:12:22;1.17;;;1.10;;
8889;SDS011;4481;43.406;24.454;2022-08-02T10:14:49;2.63;;;1.30;;
8889;SDS011;4481;43.406;24.454;2022-08-02T10:17:16;1.30;;;1.20;;
8889;SDS011;4481;43.406;24.454;2022-08-02T10:19:44;2.90;;;1.40;;
8889;SDS011;4481;43.406;24.454;2022-08-02T10:22:13;5.60;;;1.63;;
8889;SDS011;4481;43.406;24.454;2022-08-02T10:24:40;4.33;;;1.93;;
8889;SDS011;4481;43.406;24.454;2022-08-02T10:27:11;1.50;;;1.40;;
8889;SDS011;4481;43.406;24.454;2022-08-02T10:29:40;1.80;;;1.53;;
8889;SDS011;4481;43.406;24.454;2022-08-02T10:32:10;2.07;;;1.40;;
8889;SDS011;4481;43.406;24.454;2022-08-02T10:34:42;3.53;;;1.63;;
8889;SDS011;4481;43.406;24.454;2022-08-02T10:37:11;2.40;;;1.73;;
8889;SDS011;4481;43.406;24.454;2022-08-02T10:39:38;2.33;;;1.43;;
8889;SDS011;4481;43.406;24.454;2022-08-02T10:42:05;2.73;;;1.53;;
8889;SDS011;4481;43.406;24.454;2022-08-02T10:44:32;4.07;;;1.70;;
8889;SDS011;4481;43.406;24.454;2022-08-02T10:47:17;1.87;;;1.40;;
8889;SDS011;4481;43.406;24.454;2022-08-02T10:49:48;1.70;;;1.60;;
8889;SDS011;4481;43.406;24.454;2022-08-02T10:52:16;2.10;;;1.93;;
8889;SDS011;4481;43.406;24.454;2022-08-02T10:54:46;1.60;;;1.50;;
8889;SDS011;4481;43.406;24.454;2022-08-02T10:57:14;3.20;;;1.23;;
8889;SDS011;4481;43.406;24.454;2022-08-02T10:59:46;2.53;;;1.40;;
8889;SDS011;4481;43.406;24.454;2022-08-02T11:02:13;3.10;;;1.40;;
8889;SDS011;4481;43.406;24.454;2022-08-02T11:05:03;1.10;;;1.00;;
8889;SDS011;4481;43.406;24.454;2022-08-02T11:07:38;3.53;;;2.20;;
8889;SDS011;4481;43.406;24.454;2022-08-02T11:13:06;2.77;;;2.43;;
8889;SDS011;4481;43.406;24.454;2022-08-02T11:15:48;4.50;;;2.43;;
8889;SDS011;4481;43.406;24.454;2022-08-02T11:18:19;3.57;;;1.80;;
8889;SDS011;4481;43.406;24.454;2022-08-02T11:20:47;1.83;;;1.70;;
8889;SDS011;4481;43.406;24.454;2022-08-02T11:23:48;2.30;;;1.83;;
8889;SDS011;4481;43.406;24.454;2022-08-02T11:29:10;1.70;;;1.60;;
8889;SDS011;4481;43.406;24.454;2022-08-02T11:31:40;1.70;;;1.60;;
8889;SDS011;4481;43.406;24.454;2022-08-02T11:34:08;1.40;;;1.30;;
8889;SDS011;4481;43.406;24.454;2022-08-02T11:36:45;1.80;;;1.70;;
8889;SDS011;4481;43.406;24.454;2022-08-02T11:39:13;2.63;;;1.90;;
8889;SDS011;4481;43.406;24.454;2022-08-02T11:41:41;3.23;;;2.40;;
8889;SDS011;4481;43.406;24.454;2022-08-02T11:44:08;2.57;;;2.37;;
8889;SDS011;4481;43.406;24.454;2022-08-02T11:46:35;9.50;;;2.60;;
8889;SDS011;4481;43.406;24.454;2022-08-02T11:49:12;3.37;;;2.03;;
8889;SDS011;4481;43.406;24.454;2022-08-02T11:51:49;16.93;;;2.30;;
8889;SDS011;4481;43.406;24.454;2022-08-02T11:54:21;80.83;;;8.27;;
8889;SDS011;4481;43.406;24.454;2022-08-02T11:56:48;8.00;;;2.53;;
8889;SDS011;4481;43.406;24.454;2022-08-02T11:59:14;5.53;;;1.70;;
8889;SDS011;4481;43.406;24.454;2022-08-02T12:01:41;1.90;;;1.80;;
8889;SDS011;4481;43.406;24.454;2022-08-02T12:04:08;2.07;;;1.87;;
8889;SDS011;4481;43.406;24.454;2022-08-02T12:06:34;2.03;;;1.50;;
8889;SDS011;4481;43.406;24.454;2022-08-02T12:09:04;1.80;;;1.70;;
8889;SDS011;4481;43.406;24.454;2022-08-02T12:11:32;22.57;;;3.63;;
8889;SDS011;4481;43.406;24.454;2022-08-02T12:14:00;1.70;;;1.50;;
8889;SDS011;4481;43.406;24.454;2022-08-02T12:16:31;2.50;;;2.00;;
8889;SDS011;4481;43.406;24.454;2022-08-02T12:19:17;2.30;;;2.10;;
8889;SDS011;4481;43.406;24.454;2022-08-02T12:21:44;2.17;;;1.87;;
8889;SDS011;4481;43.406;24.454;2022-08-02T12:24:11;2.10;;;1.90;;
8889;SDS011;4481;43.406;24.454;2022-08-02T12:26:41;2.90;;;2.07;;
8889;SDS011;4481;43.406;24.454;2022-08-02T12:29:08;37.33;;;4.47;;
8889;SDS011;4481;43.406;24.454;2022-08-02T12:31:40;26.37;;;2.43;;
8889;SDS011;4481;43.406;24.454;2022-08-02T12:34:11;4.67;;;2.20;;
8889;SDS011;4481;43.406;24.454;2022-08-02T12:36:41;2.23;;;1.90;;
8889;SDS011;4481;43.406;24.454;2022-08-02T12:39:10;2.93;;;2.23;;
8889;SDS011;4481;43.406;24.454;2022-08-02T12:41:38;2.50;;;2.30;;
8889;SDS011;4481;43.406;24.454;2022-08-02T12:44:13;2.53;;;2.27;;
8889;SDS011;4481;43.406;24.454;2022-08-02T12:46:41;2.67;;;2.30;;
8889;SDS011;4481;43.406;24.454;2022-08-02T12:49:13;3.73;;;2.27;;
8889;SDS011;4481;43.406;24.454;2022-08-02T12:51:40;2.73;;;2.10;;
8889;SDS011;4481;43.406;24.454;2022-08-02T12:54:11;24.60;;;3.23;;
8889;SDS011;4481;43.406;24.454;2022-08-02T12:56:39;3.43;;;2.40;;
8889;SDS011;4481;43.406;24.454;2022-08-02T12:59:06;3.20;;;2.00;;
8889;SDS011;4481;43.406;24.454;2022-08-02T13:01:32;2.27;;;2.07;;
8889;SDS011;4481;43.406;24.454;2022-08-02T13:04:00;2.33;;;2.00;;
8889;SDS011;4481;43.406;24.454;2022-08-02T13:06:26;3.77;;;3.17;;
8889;SDS011;4481;43.406;24.454;2022-08-02T13:08:53;5.43;;;2.60;;
8889;SDS011;4481;43.406;24.454;2022-08-02T13:11:20;2.43;;;2.23;;
8889;SDS011;4481;43.406;24.454;2022-08-02T13:13:47;3.13;;;1.93;;
8889;SDS011;4481;43.406;24.454;2022-08-02T13:16:13;2.33;;;2.13;;
8889;SDS011;4481;43.406;24.454;2022-08-02T13:18:40;3.10;;;2.43;;
8889;SDS011;4481;43.406;24.454;2022-08-02T13:21:06;3.03;;;2.73;;
8889;SDS011;4481;43.406;24.454;2022-08-02T13:23:33;3.20;;;2.47;;
8889;SDS011;4481;43.406;24.454;2022-08-02T13:26:00;2.53;;;2.30;;
8889;SDS011;4481;43.406;24.454;2022-08-02T13:28:27;3.67;;;2.03;;
8889;SDS011;4481;43.406;24.454;2022-08-02T13:30:54;2.67;;;1.70;;
8889;SDS011;4481;43.406;24.454;2022-08-02T13:33:20;2.63;;;2.20;;
8889;SDS011;4481;43.406;24.454;2022-08-02T13:35:47;2.10;;;2.00;;
8889;SDS011;4481;43.406;24.454;2022-08-02T13:38:14;10.00;;;2.90;;
8889;SDS011;4481;43.406;24.454;2022-08-02T13:40:40;2.47;;;2.10;;
8889;SDS011;4481;43.406;24.454;2022-08-02T13:43:21;3.40;;;2.83;;
8889;SDS011;4481;43.406;24.454;2022-08-02T13:45:48;2.80;;;2.60;;
8889;SDS011;4481;43.406;24.454;2022-08-02T13:48:14;4.83;;;2.83;;
8889;SDS011;4481;43.406;24.454;2022-08-02T13:50:40;5.33;;;2.57;;
8889;SDS011;4481;43.406;24.454;2022-08-02T13:53:07;12.93;;;3.27;;
8889;SDS011;4481;43.406;24.454;2022-08-02T13:55:33;3.10;;;2.57;;
8889;SDS011;4481;43.406;24.454;2022-08-02T13:58:00;2.90;;;2.60;;
8889;SDS011;4481;43.406;24.454;2022-08-02T14:00:26;2.83;;;2.40;;
8889;SDS011;4481;43.406;24.454;2022-08-02T14:02:53;3.33;;;2.70;;
8889;SDS011;4481;43.406;24.454;2022-08-02T14:05:20;2.80;;;2.30;;
8889;SDS011;4481;43.406;24.454;2022-08-02T14:07:46;2.67;;;2.47;;
8889;SDS011;4481;43.406;24.454;2022-08-02T14:10:12;2.93;;;2.60;;
8889;SDS011;4481;43.406;24.454;2022-08-02T14:12:38;3.93;;;2.70;;
8889;SDS011;4481;43.406;24.454;2022-08-02T14:15:05;2.70;;;2.40;;
8889;SDS011;4481;43.406;24.454;2022-08-02T14:17:32;2.93;;;2.50;;
8889;SDS011;4481;43.406;24.454;2022-08-02T14:19:59;2.50;;;2.30;;
8889;SDS011;4481;43.406;24.454;2022-08-02T14:22:25;2.70;;;2.40;;
8889;SDS011;4481;43.406;24.454;2022-08-02T14:24:53;3.50;;;2.20;;
8889;SDS011;4481;43.406;24.454;2022-08-02T14:27:19;2.50;;;2.30;;
8889;SDS011;4481;43.406;24.454;2022-08-02T14:29:46;7.50;;;2.00;;
8889;SDS011;4481;43.406;24.454;2022-08-02T14:32:15;2.47;;;2.17;;
8889;SDS011;4481;43.406;24.454;2022-08-02T14:34:41;2.50;;;2.30;;
8889;SDS011;4481;43.406;24.454;2022-08-02T14:37:09;5.17;;;2.20;;
8889;SDS011;4481;43.406;24.454;2022-08-02T14:39:35;4.20;;;2.30;;
8889;SDS011;4481;43.406;24.454;2022-08-02T14:42:01;1.90;;;1.80;;
8889;SDS011;4481;43.406;24.454;2022-08-02T14:44:28;2.20;;;2.00;;
8889;SDS011;4481;43.406;24.454;2022-08-02T14:46:54;4.70;;;2.30;;
8889;SDS011;4481;43.406;24.454;2022-08-02T14:49:21;65.93;;;6.70;;
8889;SDS011;4481;43.406;24.454;2022-08-02T14:51:47;3.53;;;1.97;;
8889;SDS011;4481;43.406;24.454;2022-08-02T14:54:14;3.63;;;2.00;;
8889;SDS011;4481;43.406;24.454;2022-08-02T14:56:41;3.30;;;1.93;;
8889;SDS011;4481;43.406;24.454;2022-08-02T14:59:07;2.43;;;1.83;;
8889;SDS011;4481;43.406;24.454;2022-08-02T15:01:33;3.50;;;1.90;;
8889;SDS011;4481;43.406;24.454;2022-08-02T15:04:00;2.07;;;1.87;;
8889;SDS011;4481;43.406;24.454;2022-08-02T15:06:26;1.70;;;1.60;;
8889;SDS011;4481;43.406;24.454;2022-08-02T15:08:56;2.10;;;1.90;;
8889;SDS011;4481;43.406;24.454;2022-08-02T15:11:24;2.20;;;2.00;;
8889;SDS011;4481;43.406;24.454;2022-08-02T15:13:50;2.17;;;2.07;;